sensor_id;sensor_type;location;lat;lon;timestamp;pressure;altitude;pressure_sealevel;temperature;humidity
4415;BME280;2220;42.670;23.398;2023-06-24T08:03:06;92716.94;;;27.60;100.00
4415;BME280;2220;42.670;23.398;2023-06-24T08:05:31;92737.19;;;27.61;100.00
4415;BME280;2220;42.670;23.398;2023-06-24T08:07:57;92749.78;;;27.60;100.00
4415;BME280;2220;42.670;23.398;2023-06-24T08:10:22;92738.22;;;27.87;100.00
4415;BME280;2220;42.670;23.398;2023-06-24T08:12:48;92740.69;;;27.78;100.00
4415;BME280;2220;42.670;23.398;2023-06-24T08:15:13;92715.16;;;27.93;100.00
4415;BME280;2220;42.670;23.398;2023-06-24T08:17:40;92699.38;;;27.99;100.00
4415;BME280;2220;42.670;23.398;2023-06-24T08:20:06;92710.69;;;27.47;100.00
4415;BME280;2220;42.670;23.398;2023-06-24T08:22:31;92704.81;;;27.36;100.00
4415;BME280;2220;42.670;23.398;2023-06-24T08:24:58;92689.19;;;27.54;100.00
4415;BME280;2220;42.670;23.398;2023-06-24T08:27:24;92689.66;;;27.29;100.00
4415;BME280;2220;42.670;23.398;2023-06-24T08:29:49;92686.50;;;27.14;100.00
4415;BME280;2220;42.670;23.398;2023-06-24T08:32:14;92671.97;;;27.35;100.00
4415;BME280;2220;42.670;23.398;2023-06-24T08:34:40;92663.13;;;27.58;100.00
4415;BME280;2220;42.670;23.398;2023-06-24T08:37:05;92640.09;;;27.84;100.00
4415;BME280;2220;42.670;23.398;2023-06-24T08:39:31;92637.09;;;28.14;100.00
4415;BME280;2220;42.670;23.398;2023-06-24T08:41:56;92672.84;;;28.24;100.00
4415;BME280;2220;42.670;23.398;2023-06-24T08:44:22;92727.50;;;28.43;100.00
4415;BME280;2220;42.670;23.398;2023-06-24T08:46:48;92900.31;;;28.84;100.00
4415;BME280;2220;42.670;23.398;2023-06-24T08:51:41;94106.25;;;29.50;100.00
4415;BME280;2220;42.670;23.398;2023-06-24T08:54:09;94242.00;;;28.97;100.00
4415;BME280;2220;42.670;23.398;2023-06-24T08:56:36;94259.22;;;28.72;100.00
4415;BME280;2220;42.670;23.398;2023-06-24T08:59:08;94288.25;;;28.41;100.00
4415;BME280;2220;42.670;23.398;2023-06-24T09:01:33;94299.66;;;28.27;100.00
4415;BME280;2220;42.670;23.398;2023-06-24T09:03:59;94356.03;;;28.59;100.00
4415;BME280;2220;42.670;23.398;2023-06-24T09:06:24;94377.09;;;28.68;100.00
4415;BME280;2220;42.670;23.398;2023-06-24T09:08:56;94430.81;;;29.07;100.00
4415;BME280;2220;42.670;23.398;2023-06-24T09:11:26;94426.13;;;28.83;100.00
4415;BME280;2220;42.670;23.398;2023-06-24T09:13:59;94488.69;;;29.22;100.00
4415;BME280;2220;42.670;23.398;2023-06-24T09:16:25;94527.00;;;29.23;100.00
4415;BME280;2220;42.670;23.398;2023-06-24T09:18:52;94588.97;;;28.96;100.00
4415;BME280;2220;42.670;23.398;2023-06-24T09:21:25;94690.94;;;29.14;100.00
4415;BME280;2220;42.670;23.398;2023-06-24T09:23:53;94783.97;;;29.72;100.00
4415;BME280;2220;42.670;23.398;2023-06-24T09:26:19;94845.88;;;30.04;100.00
4415;BME280;2220;42.670;23.398;2023-06-24T09:28:48;94868.88;;;30.05;100.00
4415;BME280;2220;42.670;23.398;2023-06-24T09:31:14;94898.91;;;30.22;100.00
4415;BME280;2220;42.670;23.398;2023-06-24T09:33:40;94906.22;;;30.21;100.00
4415;BME280;2220;42.670;23.398;2023-06-24T09:36:05;94909.88;;;29.95;100.00
4415;BME280;2220;42.670;23.398;2023-06-24T09:38:35;94928.91;;;30.34;100.00
4415;BME280;2220;42.670;23.398;2023-06-24T09:41:05;94930.16;;;30.62;100.00
4415;BME280;2220;42.670;23.398;2023-06-24T09:43:34;94947.91;;;30.01;100.00
4415;BME280;2220;42.670;23.398;2023-06-24T09:46:01;94941.59;;;29.75;100.00
4415;BME280;2220;42.670;23.398;2023-06-24T09:48:27;94918.22;;;29.79;100.00
4415;BME280;2220;42.670;23.398;2023-06-24T09:50:55;94929.78;;;29.91;100.00
4415;BME280;2220;42.670;23.398;2023-06-24T09:53:24;94927.66;;;30.11;100.00
4415;BME280;2220;42.670;23.398;2023-06-24T09:55:50;94928.06;;;30.16;100.00
4415;BME280;2220;42.670;23.398;2023-06-24T09:58:17;94953.09;;;30.38;100.00
4415;BME280;2220;42.670;23.398;2023-06-24T10:00:43;94955.47;;;30.54;100.00
4415;BME280;2220;42.670;23.398;2023-06-24T10:03:09;94936.28;;;30.55;100.00
4415;BME280;2220;42.670;23.398;2023-06-24T10:05:35;94944.44;;;30.70;100.00
4415;BME280;2220;42.670;23.398;2023-06-24T10:08:04;94937.19;;;30.88;100.00
4415;BME280;2220;42.670;23.398;2023-06-24T10:10:31;94931.84;;;31.06;100.00
4415;BME280;2220;42.670;23.398;2023-06-24T10:12:56;94940.28;;;30.94;100.00
4415;BME280;2220;42.670;23.398;2023-06-24T10:15:22;94927.97;;;30.85;100.00
4415;BME280;2220;42.670;23.398;2023-06-24T10:17:50;94924.31;;;30.35;100.00
4415;BME280;2220;42.670;23.398;2023-06-24T10:35:25;94921.47;;;31.01;100.00
4415;BME280;2220;42.670;23.398;2023-06-24T10:38:00;94912.94;;;30.67;100.00
4415;BME280;2220;42.670;23.398;2023-06-24T10:45:55;94893.00;;;30.75;100.00
4415;BME280;2220;42.670;23.398;2023-06-24T10:48:21;94885.72;;;31.00;100.00
4415;BME280;2220;42.670;23.398;2023-06-24T10:50:50;94889.22;;;31.54;100.00
4415;BME280;2220;42.670;23.398;2023-06-24T10:53:16;94888.06;;;31.52;100.00
4415;BME280;2220;42.670;23.398;2023-06-24T10:55:44;94891.13;;;31.86;100.00
4415;BME280;2220;42.670;23.398;2023-06-24T10:58:12;94891.13;;;31.71;100.00
4415;BME280;2220;42.670;23.398;2023-06-24T11:00:42;94888.00;;;32.09;100.00
4415;BME280;2220;42.670;23.398;2023-06-24T11:03:10;94884.94;;;31.96;100.00
4415;BME280;2220;42.670;23.398;2023-06-24T11:05:44;94891.13;;;31.71;100.00
4415;BME280;2220;42.670;23.398;2023-06-24T11:08:10;94892.28;;;31.88;100.00
4415;BME280;2220;42.670;23.398;2023-06-24T11:10:46;94888.84;;;31.41;100.00
4415;BME280;2220;42.670;23.398;2023-06-24T11:13:13;94889.22;;;31.04;100.00
4415;BME280;2220;42.670;23.398;2023-06-24T11:15:39;94878.84;;;31.35;100.00
4415;BME280;2220;42.670;23.398;2023-06-24T11:18:10;94886.91;;;31.17;100.00
4415;BME280;2220;42.670;23.398;2023-06-24T11:20:37;94888.84;;;31.27;100.00
4415;BME280;2220;42.670;23.398;2023-06-24T11:23:07;94891.13;;;31.86;100.00
4415;BME280;2220;42.670;23.398;2023-06-24T11:25:39;94903.66;;;32.49;97.02
4415;BME280;2220;42.670;23.398;2023-06-24T11:28:05;94902.47;;;32.58;94.74
4415;BME280;2220;42.670;23.398;2023-06-24T11:30:34;94905.06;;;32.75;96.25
4415;BME280;2220;42.670;23.398;2023-06-24T11:32:59;94907.94;;;33.13;92.36
4415;BME280;2220;42.670;23.398;2023-06-24T11:35:25;94914.03;;;33.24;92.05
4415;BME280;2220;42.670;23.398;2023-06-24T11:37:50;94906.94;;;32.89;92.84
4415;BME280;2220;42.670;23.398;2023-06-24T11:40:17;94909.25;;;32.83;94.69
4415;BME280;2220;42.670;23.398;2023-06-24T11:42:44;94906.81;;;33.07;94.33
4415;BME280;2220;42.670;23.398;2023-06-24T11:45:11;94898.81;;;32.93;92.11
4415;BME280;2220;42.670;23.398;2023-06-24T11:47:38;94897.78;;;32.69;90.98
4415;BME280;2220;42.670;23.398;2023-06-24T11:50:06;94896.88;;;32.93;89.69
4415;BME280;2220;42.670;23.398;2023-06-24T11:55:01;94870.53;;;33.11;95.17
4415;BME280;2220;42.670;23.398;2023-06-24T12:00:31;94864.44;;;33.04;95.31
4415;BME280;2220;42.670;23.398;2023-06-24T12:03:07;94860.06;;;32.65;94.53
4415;BME280;2220;42.670;23.398;2023-06-24T12:05:34;94860.38;;;32.74;90.80
4415;BME280;2220;42.670;23.398;2023-06-24T12:08:02;94856.63;;;32.58;91.97
4415;BME280;2220;42.670;23.398;2023-06-24T12:10:29;94842.22;;;32.86;95.03
4415;BME280;2220;42.670;23.398;2023-06-24T12:12:58;94851.19;;;33.20;89.67
4415;BME280;2220;42.670;23.398;2023-06-24T12:15:24;94827.09;;;32.36;90.32
4415;BME280;2220;42.670;23.398;2023-06-24T12:17:49;94831.00;;;32.14;92.11
4415;BME280;2220;42.670;23.398;2023-06-24T12:20:15;94828.34;;;32.10;97.59
4415;BME280;2220;42.670;23.398;2023-06-24T12:22:41;94828.72;;;32.12;97.91
4415;BME280;2220;42.670;23.398;2023-06-24T12:25:07;94837.50;;;32.27;98.99
4415;BME280;2220;42.670;23.398;2023-06-24T12:27:33;94835.19;;;32.22;97.74
4415;BME280;2220;42.670;23.398;2023-06-24T12:29:59;94835.56;;;32.24;98.17
4415;BME280;2220;42.670;23.398;2023-06-24T12:32:26;94832.53;;;32.15;98.79
4415;BME280;2220;42.670;23.398;2023-06-24T12:34:51;94831.13;;;31.85;98.80
4415;BME280;2220;42.670;23.398;2023-06-24T12:37:16;94828.06;;;31.80;98.77
4415;BME280;2220;42.670;23.398;2023-06-24T12:39:42;94836.47;;;31.96;99.63
4415;BME280;2220;42.670;23.398;2023-06-24T12:42:08;94843.03;;;31.73;98.93
4415;BME280;2220;42.670;23.398;2023-06-24T12:44:33;94848.81;;;31.65;100.00
4415;BME280;2220;42.670;23.398;2023-06-24T12:46:59;94860.38;;;31.80;100.00
4415;BME280;2220;42.670;23.398;2023-06-24T12:49:24;94860.75;;;31.71;100.00
4415;BME280;2220;42.670;23.398;2023-06-24T12:51:50;94878.06;;;31.66;100.00
4415;BME280;2220;42.670;23.398;2023-06-24T12:54:15;94875.75;;;31.58;100.00
4415;BME280;2220;42.670;23.398;2023-06-24T12:56:41;94882.66;;;31.59;100.00
4415;BME280;2220;42.670;23.398;2023-06-24T12:59:06;94889.63;;;31.53;100.00
4415;BME280;2220;42.670;23.398;2023-06-24T13:01:31;94880.78;;;31.41;100.00
4415;BME280;2220;42.670;23.398;2023-06-24T13:03:57;94882.69;;;31.27;100.00
4415;BME280;2220;42.670;23.398;2023-06-24T13:06:23;94875.78;;;31.26;100.00
4415;BME280;2220;42.670;23.398;2023-06-24T13:08:48;94863.09;;;31.30;100.00
4415;BME280;2220;42.670;23.398;2023-06-24T13:11:13;94851.94;;;31.28;100.00
4415;BME280;2220;42.670;23.398;2023-06-24T13:13:39;94833.34;;;30.37;100.00
4415;BME280;2220;42.670;23.398;2023-06-24T13:16:04;94822.53;;;30.08;100.00
4415;BME280;2220;42.670;23.398;2023-06-24T13:18:30;94825.22;;;30.08;100.00
4415;BME280;2220;42.670;23.398;2023-06-24T13:20:55;94827.19;;;30.26;100.00
4415;BME280;2220;42.670;23.398;2023-06-24T13:23:21;94815.88;;;29.92;100.00
4415;BME280;2220;42.670;23.398;2023-06-24T13:25:47;94818.50;;;29.74;100.00
4415;BME280;2220;42.670;23.398;2023-06-24T13:28:13;94827.66;;;29.66;100.00
4415;BME280;2220;42.670;23.398;2023-06-24T13:30:38;94844.91;;;29.65;100.00
4415;BME280;2220;42.670;23.398;2023-06-24T13:33:04;94880.75;;;29.39;100.00
4415;BME280;2220;42.670;23.398;2023-06-24T13:35:29;94923.28;;;29.40;100.00
4415;BME280;2220;42.670;23.398;2023-06-24T13:37:54;94913.84;;;28.72;100.00
4415;BME280;2220;42.670;23.398;2023-06-24T13:40:20;94924.53;;;27.59;100.00
4415;BME280;2220;42.670;23.398;2023-06-24T13:42:45;94962.25;;;27.04;100.00
4415;BME280;2220;42.670;23.398;2023-06-24T13:45:11;94924.84;;;26.27;100.00
4415;BME280;2220;42.670;23.398;2023-06-24T13:47:36;94873.91;;;25.46;100.00
4415;BME280;2220;42.670;23.398;2023-06-24T13:50:03;94786.59;;;25.08;100.00
4415;BME280;2220;42.670;23.398;2023-06-24T13:52:28;94751.69;;;24.97;100.00
4415;BME280;2220;42.670;23.398;2023-06-24T13:54:54;94713.34;;;25.02;100.00
4415;BME280;2220;42.670;23.398;2023-06-24T13:57:19;94698.41;;;25.13;100.00
4415;BME280;2220;42.670;23.398;2023-06-24T13:59:45;94723.47;;;25.28;100.00
4415;BME280;2220;42.670;23.398;2023-06-24T14:02:10;94750.88;;;25.28;100.00
4415;BME280;2220;42.670;23.398;2023-06-24T14:04:37;94712.28;;;24.87;100.00
4415;BME280;2220;42.670;23.398;2023-06-24T14:07:05;94745.00;;;23.96;100.00
4415;BME280;2220;42.670;23.398;2023-06-24T14:09:31;94721.16;;;23.44;100.00
4415;BME280;2220;42.670;23.398;2023-06-24T14:11:57;94714.94;;;22.87;100.00
4415;BME280;2220;42.670;23.398;2023-06-24T14:14:23;94667.16;;;22.63;100.00
4415;BME280;2220;42.670;23.398;2023-06-24T14:16:48;94643.47;;;22.58;100.00
4415;BME280;2220;42.670;23.398;2023-06-24T14:19:14;94633.63;;;22.71;100.00
4415;BME280;2220;42.670;23.398;2023-06-24T14:21:39;94621.44;;;22.94;100.00
4415;BME280;2220;42.670;23.398;2023-06-24T14:24:05;94624.78;;;23.19;100.00
4415;BME280;2220;42.670;23.398;2023-06-24T14:26:32;94627.84;;;23.49;100.00
4415;BME280;2220;42.670;23.398;2023-06-24T14:28:58;94678.19;;;23.70;100.00
4415;BME280;2220;42.670;23.398;2023-06-24T14:31:23;94691.91;;;24.00;100.00
4415;BME280;2220;42.670;23.398;2023-06-24T14:33:49;94684.78;;;24.20;100.00
4415;BME280;2220;42.670;23.398;2023-06-24T14:36:14;94693.94;;;24.35;100.00
4415;BME280;2220;42.670;23.398;2023-06-24T14:38:40;94697.69;;;24.49;100.00
4415;BME280;2220;42.670;23.398;2023-06-24T14:41:08;94710.72;;;24.70;100.00
4415;BME280;2220;42.670;23.398;2023-06-24T14:43:34;94761.84;;;24.92;100.00
4415;BME280;2220;42.670;23.398;2023-06-24T14:45:59;94779.81;;;25.10;100.00
4415;BME280;2220;42.670;23.398;2023-06-24T14:48:25;94795.06;;;25.29;100.00
4415;BME280;2220;42.670;23.398;2023-06-24T14:50:50;94800.34;;;25.10;100.00
4415;BME280;2220;42.670;23.398;2023-06-24T14:53:16;94802.47;;;25.36;100.00
4415;BME280;2220;42.670;23.398;2023-06-24T14:55:41;94849.28;;;25.53;100.00
4415;BME280;2220;42.670;23.398;2023-06-24T14:58:06;94902.16;;;25.66;100.00
4415;BME280;2220;42.670;23.398;2023-06-24T15:00:32;94913.09;;;25.77;100.00
4415;BME280;2220;42.670;23.398;2023-06-24T15:02:57;94892.28;;;25.83;100.00
4415;BME280;2220;42.670;23.398;2023-06-24T15:05:23;94870.50;;;25.65;100.00
4415;BME280;2220;42.670;23.398;2023-06-24T15:07:48;94857.91;;;25.46;100.00
4415;BME280;2220;42.670;23.398;2023-06-24T15:10:14;94837.72;;;25.29;100.00
4415;BME280;2220;42.670;23.398;2023-06-24T15:12:39;94838.41;;;25.26;100.00
4415;BME280;2220;42.670;23.398;2023-06-24T15:15:05;94827.13;;;25.33;100.00
4415;BME280;2220;42.670;23.398;2023-06-24T15:17:31;94815.44;;;25.37;100.00
4415;BME280;2220;42.670;23.398;2023-06-24T15:19:59;94740.06;;;25.21;100.00
4415;BME280;2220;42.670;23.398;2023-06-24T15:22:25;94715.03;;;25.26;100.00
4415;BME280;2220;42.670;23.398;2023-06-24T15:24:50;94657.34;;;25.18;100.00
4415;BME280;2220;42.670;23.398;2023-06-24T15:27:16;94621.63;;;25.19;100.00
4415;BME280;2220;42.670;23.398;2023-06-24T15:29:41;94577.28;;;25.30;100.00
4415;BME280;2220;42.670;23.398;2023-06-24T15:32:07;94517.31;;;25.20;100.00
4415;BME280;2220;42.670;23.398;2023-06-24T15:34:32;94489.53;;;25.21;100.00
4415;BME280;2220;42.670;23.398;2023-06-24T15:36:58;94458.81;;;25.04;100.00
4415;BME280;2220;42.670;23.398;2023-06-24T15:39:23;94423.44;;;25.07;100.00
4415;BME280;2220;42.670;23.398;2023-06-24T15:41:49;94417.47;;;25.14;100.00
4415;BME280;2220;42.670;23.398;2023-06-24T15:44:17;94403.31;;;25.33;100.00
4415;BME280;2220;42.670;23.398;2023-06-24T15:46:43;94353.94;;;25.16;100.00
4415;BME280;2220;42.670;23.398;2023-06-24T15:49:13;94322.31;;;25.15;100.00
4415;BME280;2220;42.670;23.398;2023-06-24T15:51:39;94263.59;;;25.07;100.00
4415;BME280;2220;42.670;23.398;2023-06-24T15:54:05;94260.94;;;24.84;100.00
4415;BME280;2220;42.670;23.398;2023-06-24T15:56:30;94259.47;;;24.64;100.00
4415;BME280;2220;42.670;23.398;2023-06-24T15:58:55;94267.38;;;24.61;100.00
4415;BME280;2220;42.670;23.398;2023-06-24T16:01:21;94277.16;;;24.53;100.00
4415;BME280;2220;42.670;23.398;2023-06-24T16:03:46;94275.13;;;24.69;100.00
4415;BME280;2220;42.670;23.398;2023-06-24T16:06:12;94333.25;;;24.64;100.00
4415;BME280;2220;42.670;23.398;2023-06-24T16:08:37;94123.00;;;24.44;100.00
4415;BME280;2220;42.670;23.398;2023-06-24T16:11:03;93754.06;;;23.95;100.00
4415;BME280;2220;42.670;23.398;2023-06-24T16:13:30;93210.84;;;23.88;100.00
4415;BME280;2220;42.670;23.398;2023-06-24T16:15:57;92842.50;;;23.76;100.00
4415;BME280;2220;42.670;23.398;2023-06-24T16:18:23;92354.03;;;23.53;100.00
4415;BME280;2220;42.670;23.398;2023-06-24T16:20:48;92389.16;;;23.30;100.00
4415;BME280;2220;42.670;23.398;2023-06-24T16:23:14;92701.00;;;23.26;100.00
4415;BME280;2220;42.670;23.398;2023-06-24T16:25:39;92644.50;;;23.25;100.00
4415;BME280;2220;42.670;23.398;2023-06-24T16:28:05;92582.22;;;23.37;100.00
4415;BME280;2220;42.670;23.398;2023-06-24T16:30:30;92574.63;;;23.39;100.00
4415;BME280;2220;42.670;23.398;2023-06-24T16:32:56;92554.50;;;23.45;100.00
4415;BME280;2220;42.670;23.398;2023-06-24T16:35:21;92516.16;;;23.46;100.00
4415;BME280;2220;42.670;23.398;2023-06-24T16:37:47;92502.44;;;23.55;100.00
4415;BME280;2220;42.670;23.398;2023-06-24T16:40:12;92511.13;;;23.59;100.00
4415;BME280;2220;42.670;23.398;2023-06-24T16:42:38;92503.16;;;23.59;100.00
4415;BME280;2220;42.670;23.398;2023-06-24T16:45:03;92523.41;;;23.38;100.00
4415;BME280;2220;42.670;23.398;2023-06-24T16:47:29;92527.69;;;23.22;100.00
4415;BME280;2220;42.670;23.398;2023-06-24T16:49:54;92526.94;;;23.21;100.00
4415;BME280;2220;42.670;23.398;2023-06-24T16:52:20;92536.88;;;23.03;100.00
4415;BME280;2220;42.670;23.398;2023-06-24T16:54:46;92532.03;;;22.76;100.00
4415;BME280;2220;42.670;23.398;2023-06-24T16:57:11;92547.28;;;22.44;100.00
4415;BME280;2220;42.670;23.398;2023-06-24T16:59:36;92544.63;;;22.37;100.00
4415;BME280;2220;42.670;23.398;2023-06-24T17:02:02;92560.56;;;22.26;100.00
4415;BME280;2220;42.670;23.398;2023-06-24T17:04:27;92553.38;;;22.19;100.00
4415;BME280;2220;42.670;23.398;2023-06-24T17:06:53;92560.97;;;22.17;100.00
4415;BME280;2220;42.670;23.398;2023-06-24T17:09:18;92532.56;;;22.11;100.00
4415;BME280;2220;42.670;23.398;2023-06-24T17:11:44;92616.97;;;22.01;100.00
4415;BME280;2220;42.670;23.398;2023-06-24T17:14:09;92648.78;;;21.94;100.00
4415;BME280;2220;42.670;23.398;2023-06-24T17:16:35;92689.28;;;21.95;100.00
4415;BME280;2220;42.670;23.398;2023-06-24T17:19:00;92715.88;;;22.20;100.00
4415;BME280;2220;42.670;23.398;2023-06-24T17:21:26;92718.16;;;22.14;100.00
4415;BME280;2220;42.670;23.398;2023-06-24T17:23:51;92739.75;;;22.23;100.00
4415;BME280;2220;42.670;23.398;2023-06-24T17:26:17;92757.56;;;22.33;100.00
4415;BME280;2220;42.670;23.398;2023-06-24T17:28:42;92743.53;;;22.44;100.00
4415;BME280;2220;42.670;23.398;2023-06-24T17:31:09;92745.81;;;22.42;100.00
4415;BME280;2220;42.670;23.398;2023-06-24T17:33:34;92725.38;;;22.49;100.00
4415;BME280;2220;42.670;23.398;2023-06-24T17:36:00;92710.97;;;22.50;100.00
4415;BME280;2220;42.670;23.398;2023-06-24T17:38:26;92698.44;;;22.69;100.00
4415;BME280;2220;42.670;23.398;2023-06-24T17:40:51;92667.38;;;22.58;100.00
4415;BME280;2220;42.670;23.398;2023-06-24T17:43:17;92622.66;;;22.57;100.00
4415;BME280;2220;42.670;23.398;2023-06-24T17:45:42;92557.81;;;22.69;100.00
4415;BME280;2220;42.670;23.398;2023-06-24T17:48:08;92461.84;;;22.84;100.00
4415;BME280;2220;42.670;23.398;2023-06-24T17:50:33;92379.16;;;22.97;100.00
4415;BME280;2220;42.670;23.398;2023-06-24T17:52:59;92361.94;;;23.19;100.00
4415;BME280;2220;42.670;23.398;2023-06-24T17:55:25;92368.25;;;23.32;100.00
4415;BME280;2220;42.670;23.398;2023-06-24T17:57:53;92378.88;;;23.32;100.00
4415;BME280;2220;42.670;23.398;2023-06-24T18:00:19;92390.72;;;23.24;100.00
4415;BME280;2220;42.670;23.398;2023-06-24T18:02:44;92394.50;;;23.23;100.00
4415;BME280;2220;42.670;23.398;2023-06-24T18:05:10;92436.38;;;23.01;100.00
4415;BME280;2220;42.670;23.398;2023-06-24T18:07:36;92451.69;;;22.69;100.00
4415;BME280;2220;42.670;23.398;2023-06-24T18:10:02;92467.38;;;22.34;100.00
4415;BME280;2220;42.670;23.398;2023-06-24T18:12:27;92497.69;;;22.30;100.00
4415;BME280;2220;42.670;23.398;2023-06-24T18:14:53;92490.06;;;22.43;100.00
4415;BME280;2220;42.670;23.398;2023-06-24T18:17:18;92485.53;;;22.47;100.00
4415;BME280;2220;42.670;23.398;2023-06-24T18:19:44;92468.44;;;22.55;100.00
4415;BME280;2220;42.670;23.398;2023-06-24T18:22:10;92436.56;;;22.66;100.00
4415;BME280;2220;42.670;23.398;2023-06-24T18:24:36;92402.00;;;22.76;100.00
4415;BME280;2220;42.670;23.398;2023-06-24T18:27:02;92380.00;;;22.79;100.00
4415;BME280;2220;42.670;23.398;2023-06-24T18:29:27;92373.16;;;22.82;100.00
4415;BME280;2220;42.670;23.398;2023-06-24T18:31:53;92358.38;;;22.81;100.00
4415;BME280;2220;42.670;23.398;2023-06-24T18:34:19;92358.81;;;22.72;100.00
4415;BME280;2220;42.670;23.398;2023-06-24T18:36:44;92345.97;;;22.71;100.00
4415;BME280;2220;42.670;23.398;2023-06-24T18:39:10;92340.22;;;22.79;100.00
4415;BME280;2220;42.670;23.398;2023-06-24T18:41:35;92342.09;;;22.86;100.00
4415;BME280;2220;42.670;23.398;2023-06-24T18:44:01;92330.63;;;22.96;100.00
4415;BME280;2220;42.670;23.398;2023-06-24T18:46:28;92333.66;;;22.98;100.00
4415;BME280;2220;42.670;23.398;2023-06-24T18:48:54;92338.91;;;23.02;100.00
4415;BME280;2220;42.670;23.398;2023-06-24T18:51:20;92348.13;;;22.83;100.00
4415;BME280;2220;42.670;23.398;2023-06-24T18:53:46;92341.44;;;22.64;100.00
4415;BME280;2220;42.670;23.398;2023-06-24T18:56:11;92360.38;;;22.66;100.00
4415;BME280;2220;42.670;23.398;2023-06-24T18:58:37;92355.09;;;22.63;100.00
4415;BME280;2220;42.670;23.398;2023-06-24T19:01:02;92364.13;;;22.72;100.00
4415;BME280;2220;42.670;23.398;2023-06-24T19:03:28;92370.16;;;22.76;100.00
4415;BME280;2220;42.670;23.398;2023-06-24T19:05:53;92378.50;;;22.75;100.00
4415;BME280;2220;42.670;23.398;2023-06-24T19:08:19;92372.81;;;22.76;100.00
4415;BME280;2220;42.670;23.398;2023-06-24T19:10:44;92386.50;;;22.71;100.00
4415;BME280;2220;42.670;23.398;2023-06-24T19:13:10;92397.91;;;22.65;100.00
4415;BME280;2220;42.670;23.398;2023-06-24T19:15:35;92404.75;;;22.58;100.00
4415;BME280;2220;42.670;23.398;2023-06-24T19:18:01;92415.75;;;22.53;100.00
4415;BME280;2220;42.670;23.398;2023-06-24T19:20:26;92410.53;;;22.39;100.00
4415;BME280;2220;42.670;23.398;2023-06-24T19:22:52;92432.88;;;22.42;100.00
4415;BME280;2220;42.670;23.398;2023-06-24T19:25:17;92435.91;;;22.40;100.00
4415;BME280;2220;42.670;23.398;2023-06-24T19:27:43;92427.19;;;22.36;100.00
4415;BME280;2220;42.670;23.398;2023-06-24T19:30:08;92445.44;;;22.23;100.00
4415;BME280;2220;42.670;23.398;2023-06-24T19:32:34;92492.81;;;21.82;100.00
4415;BME280;2220;42.670;23.398;2023-06-24T19:35:00;92539.38;;;21.76;100.00
4415;BME280;2220;42.670;23.398;2023-06-24T19:37:26;92587.78;;;21.55;100.00
4415;BME280;2220;42.670;23.398;2023-06-24T19:39:52;92604.44;;;21.63;100.00
4415;BME280;2220;42.670;23.398;2023-06-24T19:42:17;92603.31;;;21.64;100.00
4415;BME280;2220;42.670;23.398;2023-06-24T19:44:42;92618.81;;;21.55;100.00
4415;BME280;2220;42.670;23.398;2023-06-24T19:47:08;92645.63;;;21.35;100.00
4415;BME280;2220;42.670;23.398;2023-06-24T19:49:37;92660.63;;;21.17;100.00
4415;BME280;2220;42.670;23.398;2023-06-24T19:52:03;92692.69;;;20.98;100.00
4415;BME280;2220;42.670;23.398;2023-06-24T19:54:28;92713.84;;;20.98;100.00
4415;BME280;2220;42.670;23.398;2023-06-24T19:56:54;92737.56;;;20.83;100.00
4415;BME280;2220;42.670;23.398;2023-06-24T19:59:19;92759.78;;;20.72;100.00
4415;BME280;2220;42.670;23.398;2023-06-24T20:01:45;92767.03;;;20.82;100.00
4415;BME280;2220;42.670;23.398;2023-06-24T20:04:10;92777.19;;;20.76;100.00
4415;BME280;2220;42.670;23.398;2023-06-24T20:06:36;92846.72;;;20.73;100.00
4415;BME280;2220;42.670;23.398;2023-06-24T20:09:01;92871.66;;;20.76;100.00
4415;BME280;2220;42.670;23.398;2023-06-24T20:11:26;92960.16;;;20.78;100.00
4415;BME280;2220;42.670;23.398;2023-06-24T20:13:52;92962.44;;;20.83;100.00
4415;BME280;2220;42.670;23.398;2023-06-24T20:16:17;92964.72;;;20.81;100.00
4415;BME280;2220;42.670;23.398;2023-06-24T20:18:43;92964.31;;;20.79;100.00
4415;BME280;2220;42.670;23.398;2023-06-24T20:21:08;92975.97;;;20.75;100.00
4415;BME280;2220;42.670;23.398;2023-06-24T20:23:39;92975.28;;;20.81;100.00
4415;BME280;2220;42.670;23.398;2023-06-24T20:26:05;92954.66;;;20.94;100.00
4415;BME280;2220;42.670;23.398;2023-06-24T20:28:30;92939.97;;;21.04;100.00
4415;BME280;2220;42.670;23.398;2023-06-24T20:30:56;92918.88;;;21.11;100.00
4415;BME280;2220;42.670;23.398;2023-06-24T20:33:27;92908.31;;;21.14;100.00
4415;BME280;2220;42.670;23.398;2023-06-24T20:35:53;92888.59;;;21.08;100.00
4415;BME280;2220;42.670;23.398;2023-06-24T20:38:19;92886.34;;;21.10;100.00
4415;BME280;2220;42.670;23.398;2023-06-24T20:40:44;92887.53;;;21.16;100.00
4415;BME280;2220;42.670;23.398;2023-06-24T20:43:10;92872.91;;;21.33;100.00
4415;BME280;2220;42.670;23.398;2023-06-24T20:45:35;92845.72;;;21.40;100.00
4415;BME280;2220;42.670;23.398;2023-06-24T20:48:00;92829.84;;;21.40;100.00
4415;BME280;2220;42.670;23.398;2023-06-24T20:50:26;92791.31;;;21.46;100.00
4415;BME280;2220;42.670;23.398;2023-06-24T20:52:51;92742.88;;;21.45;100.00
4415;BME280;2220;42.670;23.398;2023-06-24T20:55:17;92675.16;;;21.44;100.00
4415;BME280;2220;42.670;23.398;2023-06-24T20:57:43;92608.19;;;21.47;100.00
4415;BME280;2220;42.670;23.398;2023-06-24T21:00:09;92566.22;;;21.53;100.00
4415;BME280;2220;42.670;23.398;2023-06-24T21:02:34;92531.41;;;21.55;100.00
4415;BME280;2220;42.670;23.398;2023-06-24T21:05:00;92504.56;;;21.67;100.00
4415;BME280;2220;42.670;23.398;2023-06-24T21:07:26;92485.63;;;21.72;100.00
4415;BME280;2220;42.670;23.398;2023-06-24T21:09:51;92520.81;;;21.72;100.00
4415;BME280;2220;42.670;23.398;2023-06-24T21:12:17;92671.09;;;20.92;100.00
4415;BME280;2220;42.670;23.398;2023-06-24T21:14:42;92808.03;;;20.58;100.00
4415;BME280;2220;42.670;23.398;2023-06-24T21:17:08;92884.34;;;20.56;100.00
4415;BME280;2220;42.670;23.398;2023-06-24T21:19:34;92967.25;;;20.40;100.00
4415;BME280;2220;42.670;23.398;2023-06-24T21:21:59;93022.22;;;20.28;100.00
4415;BME280;2220;42.670;23.398;2023-06-24T21:24:25;93063.56;;;20.39;100.00